Time;durP1;ratioP1;P1;durP2;ratioP2;P2;SDS_P1;SDS_P2;PMS_P1;PMS_P2;Temp;Humidity;BMP_temperature;BMP_pressure;BME280_temperature;BME280_humidity;BME280_pressure;Samples;Min_cycle;Max_cycle;Signal;HPM_P1;HPM_P2
2022/09/02 00:01:23;;;;;;;1.63;0.80;;;17.70;99.90;;;;;;5065012;28;38863;-78
2022/09/02 00:03:51;;;;;;;3.13;0.85;;;17.60;99.90;;;;;;5079974;28;36856;-78
2022/09/02 00:06:17;;;;;;;2.45;1.00;;;17.60;99.90;;;;;;5083018;28;39838;-78
2022/09/02 00:08:44;;;;;;;2.17;0.80;;;17.60;99.90;;;;;;5056290;28;37980;-78
2022/09/02 00:11:18;;;;;;;1.50;0.73;;;17.60;99.90;;;;;;5070767;28;38141;-78
2022/09/02 00:13:45;;;;;;;1.63;0.98;;;17.60;99.90;;;;;;5058413;28;37343;-79
2022/09/02 00:16:12;;;;;;;2.38;0.80;;;17.50;99.90;;;;;;5075440;28;39182;-79
2022/09/02 00:18:39;;;;;;;3.38;0.90;;;17.50;99.90;;;;;;5065168;28;39754;-78
2022/09/02 00:21:05;;;;;;;3.28;1.00;;;17.50;99.90;;;;;;5081617;28;39371;-78
2022/09/02 00:23:32;;;;;;;1.80;0.55;;;17.50;99.90;;;;;;5058962;28;38180;-78
2022/09/02 00:25:58;;;;;;;1.95;0.90;;;17.50;99.90;;;;;;5070943;28;38999;-79
2022/09/02 00:28:25;;;;;;;2.65;1.00;;;17.50;99.90;;;;;;5081879;27;38408;-79
2022/09/02 00:30:51;;;;;;;4.15;0.82;;;17.50;99.90;;;;;;5056969;28;38947;-79
2022/09/02 00:33:17;;;;;;;0.95;0.80;;;17.40;99.90;;;;;;5080094;28;38212;-78
2022/09/02 00:35:44;;;;;;;2.75;1.00;;;17.40;99.90;;;;;;5061552;28;38076;-78
2022/09/02 00:38:10;;;;;;;0.80;0.80;;;17.40;99.90;;;;;;5071476;28;38577;-79
2022/09/02 00:40:37;;;;;;;1.92;0.80;;;17.30;99.90;;;;;;5059979;28;38738;-79
2022/09/02 00:43:07;;;;;;;2.00;0.75;;;17.30;99.90;;;;;;5061592;28;37825;-79
2022/09/02 00:45:36;;;;;;;2.47;0.93;;;17.30;99.90;;;;;;5078741;28;39609;-79
2022/09/02 00:48:04;;;;;;;5.30;1.30;;;17.30;99.90;;;;;;5073046;28;39030;-78
2022/09/02 00:50:34;;;;;;;1.08;0.60;;;17.30;99.90;;;;;;5071826;28;38873;-79
2022/09/02 00:53:10;;;;;;;1.38;0.63;;;17.30;99.90;;;;;;5055944;28;36409;-79
2022/09/02 00:55:43;;;;;;;1.05;0.80;;;17.20;99.90;;;;;;5074551;28;48183;-78
2022/09/02 00:58:24;;;;;;;1.40;0.68;;;17.20;99.90;;;;;;5070415;28;38156;-79
2022/09/02 01:00:57;;;;;;;2.53;1.05;;;17.20;99.90;;;;;;5071777;28;37835;-79
2022/09/02 01:03:26;;;;;;;;;;;17.20;99.90;;;;;;5052073;28;38161;-79
2022/09/02 01:05:53;;;;;;;1.35;1.00;;;17.20;99.90;;;;;;5075836;28;37839;-79
2022/09/02 01:08:24;;;;;;;3.92;0.90;;;17.20;99.90;;;;;;5069421;28;39188;-78
2022/09/02 01:10:54;;;;;;;4.15;1.10;;;17.20;99.90;;;;;;5049393;28;38731;-78
2022/09/02 01:13:24;;;;;;;1.95;0.82;;;17.20;99.90;;;;;;5045457;28;38828;-79
2022/09/02 01:15:55;;;;;;;2.28;1.02;;;17.20;99.90;;;;;;5071691;28;38877;-78
2022/09/02 01:18:30;;;;;;;1.75;0.90;;;17.10;99.90;;;;;;5053260;28;40126;-79
2022/09/02 01:20:59;;;;;;;2.00;0.98;;;17.10;99.90;;;;;;5069007;28;38342;-78
2022/09/02 01:23:27;;;;;;;3.25;0.93;;;17.10;99.90;;;;;;5067585;28;37202;-78
2022/09/02 01:25:54;;;;;;;1.55;0.85;;;17.10;99.90;;;;;;5048437;28;39614;-78
2022/09/02 01:28:21;;;;;;;3.72;1.02;;;17.00;99.90;;;;;;5072331;28;39414;-78
2022/09/02 01:30:50;;;;;;;2.05;0.93;;;17.00;99.90;;;;;;5054830;28;37320;-78
2022/09/02 01:33:17;;;;;;;1.80;1.00;;;16.90;99.90;;;;;;5048474;28;37746;-79
2022/09/02 01:35:45;;;;;;;3.47;0.82;;;16.90;99.90;;;;;;5074759;28;39587;-78
2022/09/02 01:38:11;;;;;;;6.00;0.95;;;16.80;99.90;;;;;;5069174;28;40313;-77
2022/09/02 01:40:38;;;;;;;2.47;0.90;;;16.80;99.90;;;;;;5073749;28;36653;-78
2022/09/02 01:43:14;;;;;;;2.28;0.80;;;16.80;99.90;;;;;;5067507;28;38074;-78
2022/09/02 01:45:43;;;;;;;2.53;0.80;;;16.70;99.90;;;;;;5070754;28;39442;-79
2022/09/02 01:48:10;;;;;;;1.38;0.75;;;16.70;99.90;;;;;;5059606;28;40111;-78
2022/09/02 01:50:39;;;;;;;0.90;0.70;;;16.60;99.90;;;;;;5074486;28;37665;-78
2022/09/02 01:53:05;;;;;;;1.52;0.90;;;16.50;99.90;;;;;;5058297;28;39026;-78
2022/09/02 01:55:32;;;;;;;4.25;0.82;;;16.50;99.90;;;;;;5054536;28;37572;-78
2022/09/02 01:57:59;;;;;;;4.50;0.90;;;16.50;99.90;;;;;;5059614;28;38855;-79
2022/09/02 02:00:26;;;;;;;2.53;0.95;;;16.40;99.90;;;;;;5054370;28;37101;-78
2022/09/02 02:02:52;;;;;;;2.22;0.80;;;16.50;99.90;;;;;;5078422;28;37530;-79
2022/09/02 02:05:19;;;;;;;3.65;0.98;;;16.40;99.90;;;;;;5067186;28;38725;-79
2022/09/02 02:07:45;;;;;;;2.55;1.33;;;16.40;99.90;;;;;;5070548;28;38626;-79
2022/09/02 02:10:14;;;;;;;1.35;0.82;;;16.30;99.90;;;;;;5053461;28;38597;-78
2022/09/02 02:12:42;;;;;;;5.38;0.88;;;16.20;99.90;;;;;;5062998;28;38039;-79
2022/09/02 02:15:15;;;;;;;2.17;1.10;;;16.20;99.90;;;;;;5045746;28;39575;-79
2022/09/02 02:17:41;;;;;;;3.13;1.35;;;16.20;99.90;;;;;;5070795;28;38437;-79
2022/09/02 02:20:09;;;;;;;1.40;0.90;;;16.20;99.90;;;;;;5054639;28;38248;-79
2022/09/02 02:22:36;;;;;;;1.23;0.65;;;16.10;99.90;;;;;;5075055;28;36863;-78
2022/09/02 02:25:04;;;;;;;1.13;0.70;;;16.00;99.90;;;;;;5077460;28;38752;-79
2022/09/02 02:27:30;;;;;;;3.45;0.90;;;16.00;99.90;;;;;;5071641;28;47317;-78
2022/09/02 02:29:57;;;;;;;4.68;0.82;;;16.00;99.90;;;;;;5065775;28;36815;-78
2022/09/02 02:32:24;;;;;;;3.58;0.90;;;16.00;99.90;;;;;;5064203;28;34927;-78
2022/09/02 02:34:51;;;;;;;2.22;0.63;;;16.00;99.90;;;;;;5072650;28;39546;-78
2022/09/02 02:37:17;;;;;;;1.58;0.98;;;16.00;99.90;;;;;;5048833;28;38830;-79
2022/09/02 02:39:43;;;;;;;1.42;0.90;;;15.90;99.90;;;;;;5049873;28;38927;-78
2022/09/02 02:42:12;;;;;;;1.52;1.05;;;15.90;99.90;;;;;;5072660;28;37265;-79
2022/09/02 02:44:39;;;;;;;4.35;0.90;;;15.90;99.90;;;;;;5061565;28;37005;-78
2022/09/02 02:47:07;;;;;;;3.60;1.10;;;15.80;99.90;;;;;;5067592;28;38243;-79
2022/09/02 02:49:38;;;;;;;2.53;1.40;;;15.80;99.90;;;;;;5051254;28;37991;-78
2022/09/02 02:52:05;;;;;;;2.38;0.90;;;15.80;99.90;;;;;;5067110;28;37347;-79
2022/09/02 02:54:31;;;;;;;2.22;0.90;;;15.90;99.90;;;;;;5048987;28;39756;-78
2022/09/02 02:56:57;;;;;;;3.50;0.75;;;15.80;99.90;;;;;;5061969;28;38068;-79
2022/09/02 02:59:25;;;;;;;2.13;1.20;;;15.80;99.90;;;;;;5051890;28;39252;-79
2022/09/02 03:01:51;;;;;;;3.95;0.82;;;15.70;99.90;;;;;;5057234;28;38022;-78
2022/09/02 03:04:17;;;;;;;2.15;1.13;;;15.70;99.90;;;;;;5071939;28;38603;-79
2022/09/02 03:06:43;;;;;;;4.13;1.00;;;15.70;99.90;;;;;;5063554;28;38301;-79
2022/09/02 03:09:10;;;;;;;1.27;0.88;;;15.70;99.90;;;;;;5051008;28;38955;-79
2022/09/02 03:11:36;;;;;;;1.88;0.95;;;15.60;99.90;;;;;;5046575;28;37836;-78
2022/09/02 03:14:02;;;;;;;1.02;0.80;;;15.60;99.90;;;;;;5066715;28;39563;-78
2022/09/02 03:16:28;;;;;;;4.88;1.20;;;15.60;99.90;;;;;;5066944;28;37375;-79
2022/09/02 03:18:54;;;;;;;4.10;1.35;;;15.70;99.90;;;;;;5066504;28;37627;-78
2022/09/02 03:21:21;;;;;;;1.75;1.05;;;15.60;99.90;;;;;;5052255;28;37292;-78
2022/09/02 03:23:47;;;;;;;4.88;1.25;;;15.60;99.90;;;;;;5068226;28;39295;-80
2022/09/02 03:26:19;;;;;;;2.58;0.85;;;15.60;99.90;;;;;;5054005;28;38461;-79
2022/09/02 03:28:47;;;;;;;2.08;0.95;;;15.60;99.90;;;;;;5049712;28;36853;-78
2022/09/02 03:31:19;;;;;;;1.27;0.90;;;15.60;99.90;;;;;;5055862;28;35850;-78
2022/09/02 03:33:45;;;;;;;2.47;1.30;;;15.60;99.90;;;;;;5056132;28;39609;-78
2022/09/02 03:36:29;;;;;;;1.67;0.98;;;15.60;99.90;;;;;;5057462;28;38809;-78
2022/09/02 03:38:56;;;;;;;2.33;1.00;;;15.70;99.90;;;;;;5057359;28;38781;-78
2022/09/02 03:41:23;;;;;;;3.55;1.35;;;15.70;99.90;;;;;;5071319;28;36853;-78
2022/09/02 03:43:50;;;;;;;3.58;1.05;;;15.70;99.90;;;;;;5077155;28;38425;-79
2022/09/02 03:46:16;;;;;;;1.27;0.98;;;15.60;99.90;;;;;;5073853;28;38570;-79
2022/09/02 03:48:43;;;;;;;3.33;0.90;;;15.60;99.90;;;;;;5071686;28;37574;-80
2022/09/02 03:51:10;;;;;;;4.80;1.10;;;15.60;99.90;;;;;;5064856;28;36215;-79
2022/09/02 03:53:37;;;;;;;3.17;1.17;;;15.60;99.90;;;;;;5072812;28;40510;-79
2022/09/02 03:56:07;;;;;;;3.72;1.13;;;15.70;99.90;;;;;;5056622;28;40681;-79
2022/09/02 03:58:35;;;;;;;2.13;1.20;;;15.70;99.90;;;;;;5053999;28;39912;-79
2022/09/02 04:01:02;;;;;;;5.00;1.00;;;15.70;99.90;;;;;;5050840;28;38516;-79
2022/09/02 04:03:28;;;;;;;5.22;1.20;;;15.70;99.90;;;;;;5073403;28;48569;-78
2022/09/02 04:05:55;;;;;;;4.10;1.15;;;15.70;99.90;;;;;;5068416;28;38563;-79
2022/09/02 04:08:21;;;;;;;5.38;1.25;;;15.70;99.90;;;;;;5056077;28;39232;-78
2022/09/02 04:10:47;;;;;;;2.50;0.88;;;15.70;99.90;;;;;;5069325;28;37678;-79
2022/09/02 04:13:13;;;;;;;2.63;1.30;;;15.70;99.90;;;;;;5076578;28;39889;-79
2022/09/02 04:15:43;;;;;;;3.85;0.93;;;15.60;99.90;;;;;;5058585;28;37437;-78
2022/09/02 04:18:10;;;;;;;3.85;1.20;;;15.60;99.90;;;;;;5073917;28;37289;-79
2022/09/02 04:20:38;;;;;;;3.97;0.80;;;15.60;99.90;;;;;;5057359;28;36285;-79
2022/09/02 04:23:05;;;;;;;2.15;1.10;;;15.60;99.90;;;;;;5073158;28;39504;-79
2022/09/02 04:25:31;;;;;;;1.75;1.05;;;15.60;99.90;;;;;;5055495;28;39982;-79
2022/09/02 04:27:57;;;;;;;4.22;0.80;;;15.60;99.90;;;;;;5060402;28;39850;-79
2022/09/02 04:30:24;;;;;;;2.95;1.20;;;15.60;99.90;;;;;;5055024;28;38552;-79
2022/09/02 04:32:51;;;;;;;1.25;0.80;;;15.50;99.90;;;;;;5056839;28;40319;-79
2022/09/02 04:35:18;;;;;;;3.47;1.08;;;15.50;99.90;;;;;;5066939;28;38067;-79
2022/09/02 04:37:46;;;;;;;5.35;1.42;;;15.50;99.90;;;;;;5048917;28;37216;-79
2022/09/02 04:40:12;;;;;;;3.63;0.95;;;15.50;99.90;;;;;;5048142;28;36149;-79
2022/09/02 04:42:38;;;;;;;9.88;1.33;;;15.50;99.90;;;;;;5053190;28;38274;-79
2022/09/02 04:45:05;;;;;;;2.78;1.20;;;15.50;99.90;;;;;;5056690;28;38821;-80
2022/09/02 04:47:31;;;;;;;3.60;1.40;;;15.50;99.90;;;;;;5049817;28;37050;-79
2022/09/02 04:49:57;;;;;;;1.23;0.90;;;15.40;99.90;;;;;;5065788;28;37325;-79
2022/09/02 04:52:24;;;;;;;2.08;1.20;;;15.40;99.90;;;;;;5065262;28;39367;-79
2022/09/02 04:54:50;;;;;;;2.30;1.10;;;15.40;99.90;;;;;;5063463;28;38155;-79
2022/09/02 04:57:16;;;;;;;3.58;1.30;;;15.40;99.90;;;;;;5065255;28;38929;-79
2022/09/02 04:59:42;;;;;;;2.47;0.93;;;15.40;99.90;;;;;;5051678;28;37873;-79
2022/09/02 05:02:10;;;;;;;5.88;1.23;;;15.40;99.90;;;;;;5067579;28;38909;-79
2022/09/02 05:04:36;;;;;;;5.65;1.50;;;15.40;99.90;;;;;;5052127;28;37350;-78
2022/09/02 05:07:03;;;;;;;2.35;1.02;;;15.40;99.90;;;;;;5052977;28;36579;-78
2022/09/02 05:09:30;;;;;;;3.00;1.40;;;15.40;99.90;;;;;;5070005;28;37372;-78
2022/09/02 05:11:57;;;;;;;7.47;1.55;;;15.40;99.90;;;;;;5075293;28;39498;-77
2022/09/02 05:14:24;;;;;;;8.32;1.90;;;15.30;99.90;;;;;;5062441;28;38652;-77
2022/09/02 05:16:53;;;;;;;2.78;1.30;;;15.30;99.90;;;;;;5050505;28;38582;-77
2022/09/02 05:19:22;;;;;;;2.72;1.10;;;15.30;99.90;;;;;;5056064;28;37580;-77
2022/09/02 05:21:50;;;;;;;2.97;1.25;;;15.30;99.90;;;;;;5050370;28;39355;-77
2022/09/02 05:24:16;;;;;;;2.45;1.20;;;15.30;99.90;;;;;;5066654;28;39025;-77
2022/09/02 05:26:43;;;;;;;3.30;1.70;;;15.30;99.90;;;;;;5054941;28;37245;-77
2022/09/02 05:29:10;;;;;;;1.45;1.02;;;15.30;99.90;;;;;;5069076;28;38007;-77
2022/09/02 05:31:37;;;;;;;3.30;1.40;;;15.30;99.90;;;;;;5075979;28;38854;-77
2022/09/02 05:34:03;;;;;;;4.28;1.38;;;15.30;99.90;;;;;;5051634;28;39510;-77
2022/09/02 05:36:31;;;;;;;2.72;1.25;;;15.30;99.90;;;;;;5059450;28;39997;-76
2022/09/02 05:38:58;;;;;;;4.72;1.27;;;15.20;99.90;;;;;;5071927;28;36852;-78
2022/09/02 05:41:24;;;;;;;3.92;1.17;;;15.30;99.90;;;;;;5066162;28;39135;-77
2022/09/02 05:43:53;;;;;;;5.13;1.40;;;15.20;99.90;;;;;;5057088;28;38430;-77
2022/09/02 05:46:22;;;;;;;2.22;1.52;;;15.20;99.90;;;;;;5069134;28;37750;-76
2022/09/02 05:51:47;;;;;;;7.55;1.20;;;15.10;99.90;;;;;;5068768;28;49550;-77
2022/09/02 05:54:17;;;;;;;2.10;1.40;;;15.10;99.90;;;;;;5048580;28;38540;-77
2022/09/02 05:56:46;;;;;;;7.70;1.02;;;15.10;99.90;;;;;;5075807;28;38540;-77
2022/09/02 05:59:13;;;;;;;6.20;1.45;;;15.20;99.90;;;;;;5071235;28;36992;-77
2022/09/02 06:01:39;;;;;;;4.63;1.77;;;15.20;99.90;;;;;;5056951;28;39897;-77
2022/09/02 06:04:06;;;;;;;3.40;1.90;;;15.30;99.90;;;;;;5057435;28;39810;-77
2022/09/02 06:06:33;;;;;;;2.53;1.45;;;15.30;99.90;;;;;;5075145;28;38264;-77
2022/09/02 06:09:00;;;;;;;6.80;2.00;;;15.30;99.90;;;;;;5058377;28;37017;-77
2022/09/02 06:11:27;;;;;;;10.77;2.08;;;15.40;99.90;;;;;;5073890;28;38410;-77
2022/09/02 06:13:54;;;;;;;5.82;1.95;;;15.50;99.90;;;;;;5080014;28;38302;-77
2022/09/02 06:16:21;;;;;;;7.47;1.90;;;15.50;99.90;;;;;;5060878;28;38399;-77
2022/09/02 06:18:49;;;;;;;5.55;1.88;;;15.60;99.90;;;;;;5076344;28;39286;-76
2022/09/02 06:21:16;;;;;;;3.72;1.73;;;15.60;99.90;;;;;;5049950;28;41671;-77
2022/09/02 06:23:42;;;;;;;10.52;1.73;;;15.60;99.90;;;;;;5064697;28;38653;-76
2022/09/02 06:26:11;;;;;;;5.07;2.03;;;15.80;99.90;;;;;;5081151;28;20143;-77
2022/09/02 06:28:37;;;;;;;5.25;1.80;;;15.90;99.90;;;;;;5059554;28;38024;-76
2022/09/02 06:31:09;;;;;;;5.90;2.03;;;16.00;99.90;;;;;;5074375;28;38169;-77
2022/09/02 06:33:36;;;;;;;5.13;2.00;;;16.00;99.90;;;;;;5077185;28;39227;-77
2022/09/02 06:36:09;;;;;;;5.13;2.00;;;16.10;99.90;;;;;;5065150;28;36879;-77
2022/09/02 06:38:37;;;;;;;8.90;2.30;;;16.20;99.90;;;;;;5082312;28;37702;-77
2022/09/02 06:41:04;;;;;;;3.28;1.90;;;16.30;99.90;;;;;;5080234;28;38995;-77
2022/09/02 06:43:30;;;;;;;6.43;3.15;;;16.40;99.90;;;;;;5080555;28;38972;-77
2022/09/02 06:45:56;;;;;;;4.63;2.38;;;16.30;99.90;;;;;;5063139;28;38824;-77
2022/09/02 06:48:22;;;;;;;5.05;2.38;;;16.40;99.90;;;;;;5078869;28;38352;-77
2022/09/02 06:50:48;;;;;;;3.97;1.83;;;16.50;99.90;;;;;;5074400;28;40512;-78
2022/09/02 06:53:16;;;;;;;8.48;1.95;;;16.70;99.90;;;;;;5079574;28;39024;-78
2022/09/02 06:55:44;;;;;;;4.88;2.28;;;16.70;99.90;;;;;;5072685;28;37870;-78
2022/09/02 06:58:11;;;;;;;5.10;2.30;;;16.80;99.90;;;;;;5066777;28;37435;-77
2022/09/02 07:00:38;;;;;;;4.93;2.40;;;16.90;99.90;;;;;;5072707;28;38264;-78
2022/09/02 07:06:09;;;;;;;7.65;2.45;;;16.90;99.90;;;;;;5073744;28;39503;-76
2022/09/02 07:08:40;;;;;;;5.22;2.40;;;16.90;99.90;;;;;;5048053;28;47263;-77
2022/09/02 07:11:19;;;;;;;3.17;2.10;;;16.90;99.90;;;;;;5064004;28;39548;-76
2022/09/02 07:13:45;;;;;;;10.48;2.40;;;16.90;99.90;;;;;;5077987;28;38661;-75
2022/09/02 07:16:11;;;;;;;10.25;2.90;;;17.00;99.90;;;;;;5074658;28;38159;-76
2022/09/02 07:18:38;;;;;;;6.88;2.65;;;17.10;99.90;;;;;;5058511;28;38485;-76
2022/09/02 07:21:06;;;;;;;4.22;2.42;;;17.20;99.90;;;;;;5061864;28;40800;-76
2022/09/02 07:23:33;;;;;;;7.88;2.70;;;17.30;99.90;;;;;;5074187;28;39481;-77
2022/09/02 07:25:59;;;;;;;3.78;2.70;;;17.40;99.90;;;;;;5080158;28;38323;-77
2022/09/02 07:28:25;;;;;;;5.65;2.53;;;17.60;99.90;;;;;;5085453;28;36990;-76
2022/09/02 07:30:54;;;;;;;6.38;2.60;;;17.80;99.90;;;;;;5062452;28;39259;-73
2022/09/02 07:33:21;;;;;;;5.43;2.83;;;17.90;99.90;;;;;;5060920;28;38418;-75
2022/09/02 07:35:49;;;;;;;4.95;2.85;;;18.10;99.90;;;;;;5084164;28;38159;-74
2022/09/02 07:38:15;;;;;;;4.20;2.40;;;18.30;99.90;;;;;;5066439;28;37687;-75
2022/09/02 07:40:42;;;;;;;8.13;2.53;;;18.60;99.90;;;;;;5057872;28;40200;-74
2022/09/02 07:43:09;;;;;;;7.47;2.50;;;18.90;99.90;;;;;;5058105;28;39849;-75
2022/09/02 07:45:37;;;;;;;9.63;2.78;;;19.20;99.90;;;;;;5069482;28;39886;-74
2022/09/02 07:48:08;;;;;;;12.15;3.00;;;19.60;99.90;;;;;;5076148;28;36997;-75
2022/09/02 07:50:36;;;;;;;13.30;3.38;;;19.70;99.90;;;;;;5074971;28;38854;-76
2022/09/02 07:53:05;;;;;;;11.40;2.55;;;19.80;99.90;;;;;;5071953;28;37965;-75
2022/09/02 07:55:37;;;;;;;12.27;3.22;;;19.90;99.90;;;;;;5061277;28;41037;-75
2022/09/02 07:58:03;;;;;;;;;;;19.80;99.90;;;;;;5082121;28;37697;-75
2022/09/02 08:00:30;;;;;;;6.82;2.60;;;19.50;99.90;;;;;;5053504;28;38032;-76
2022/09/02 08:02:56;;;;;;;11.90;3.58;;;19.60;99.90;;;;;;5066519;28;40145;-75
2022/09/02 08:05:23;;;;;;;6.35;2.60;;;19.50;99.90;;;;;;5076391;28;38109;-75
2022/09/02 08:07:49;;;;;;;5.55;3.05;;;19.50;99.90;;;;;;5058123;28;37266;-79
2022/09/02 08:10:16;;;;;;;3.83;2.60;;;19.50;99.90;;;;;;5075388;28;36975;-79
2022/09/02 08:12:43;;;;;;;7.95;2.80;;;19.40;99.90;;;;;;5058586;28;39517;-79
2022/09/02 08:15:15;;;;;;;5.38;2.40;;;19.40;99.90;;;;;;5070090;28;39848;-78
2022/09/02 08:17:43;;;;;;;;;;;19.30;99.90;;;;;;5076040;28;37386;-77
2022/09/02 08:20:12;;;;;;;5.00;2.75;;;19.40;99.90;;;;;;5061472;28;40853;-81
2022/09/02 08:22:38;;;;;;;8.27;4.05;;;19.40;99.90;;;;;;5070345;28;39453;-81
2022/09/02 08:25:05;;;;;;;7.47;3.35;;;19.70;99.90;;;;;;5074345;28;39291;-78
2022/09/02 08:27:31;;;;;;;7.20;3.33;;;19.80;99.90;;;;;;5062573;28;38206;-78
2022/09/02 08:29:57;;;;;;;4.88;3.17;;;19.80;99.90;;;;;;5079294;28;38990;-79
2022/09/02 08:32:24;;;;;;;8.25;3.33;;;19.70;99.90;;;;;;5062202;28;40032;-75
2022/09/02 08:34:50;;;;;;;8.75;3.58;;;19.70;99.90;;;;;;5079396;28;37974;-76
2022/09/02 08:37:17;;;;;;;7.35;3.58;;;19.80;99.90;;;;;;5071215;28;38278;-76
2022/09/02 08:39:47;;;;;;;6.95;3.50;;;20.00;99.90;;;;;;5078831;28;39819;-76
2022/09/02 08:42:22;;;;;;;5.45;3.10;;;20.40;99.90;;;;;;5079502;28;38076;-78
2022/09/02 08:44:53;;;;;;;8.75;4.10;;;20.70;99.90;;;;;;5064071;28;38629;-79
2022/09/02 08:47:23;;;;;;;7.95;3.42;;;20.80;99.90;;;;;;5065279;28;36370;-78
2022/09/02 08:49:54;;;;;;;6.65;2.97;;;20.70;99.90;;;;;;5089766;28;39603;-79
2022/09/02 08:52:37;;;;;;;5.82;3.33;;;20.80;99.90;;;;;;5075377;28;38648;-78
2022/09/02 08:55:05;;;;;;;13.00;4.50;;;21.00;99.90;;;;;;5071600;28;38311;-79
2022/09/02 08:57:31;;;;;;;12.60;4.10;;;21.00;99.90;;;;;;5053060;28;47236;-78
2022/09/02 09:00:00;;;;;;;11.40;3.92;;;21.30;99.90;;;;;;5061494;28;38811;-79
2022/09/02 09:02:42;;;;;;;10.23;3.88;;;21.50;99.90;;;;;;5052279;28;38590;-78
2022/09/02 09:05:19;;;;;;;11.82;4.20;;;21.70;99.90;;;;;;5069015;28;38862;-78
2022/09/02 09:07:58;;;;;;;16.67;4.15;;;21.80;99.90;;;;;;5064084;28;36771;-79
2022/09/02 09:10:53;;;;;;;11.93;3.63;;;21.90;99.90;;;;;;5066878;28;38306;-79
2022/09/02 09:13:44;;;;;;;13.07;3.78;;;22.00;99.90;;;;;;5038666;28;39201;-79
2022/09/02 09:16:25;;;;;;;12.55;3.60;;;22.30;99.90;;;;;;5064543;28;38683;-79
2022/09/02 09:19:02;;;;;;;10.02;3.58;;;22.50;99.90;;;;;;5060602;28;38309;-79
2022/09/02 09:21:32;;;;;;;7.15;3.63;;;22.20;99.90;;;;;;5062795;28;47165;-79
2022/09/02 09:24:01;;;;;;;12.13;3.85;;;22.20;99.90;;;;;;5060557;28;39102;-79
2022/09/02 09:26:31;;;;;;;11.50;3.50;;;22.40;99.90;;;;;;5056890;28;46058;-79
2022/09/02 09:28:58;;;;;;;6.75;2.90;;;22.60;99.90;;;;;;5061434;28;37249;-79
2022/09/02 09:31:29;;;;;;;5.47;2.88;;;22.90;99.90;;;;;;5057495;28;37917;-80
2022/09/02 09:33:58;;;;;;;6.93;2.67;;;23.00;99.90;;;;;;5062980;28;37705;-79
2022/09/02 09:36:39;;;;;;;7.60;3.15;;;23.30;99.90;;;;;;5062411;28;39107;-80
2022/09/02 09:39:20;;;;;;;7.97;3.08;;;23.60;99.90;;;;;;5076224;28;37655;-79
2022/09/02 09:41:48;;;;;;;7.70;2.88;;;23.70;99.90;;;;;;5064730;28;37537;-80
2022/09/02 09:44:43;;;;;;;8.23;3.58;;;23.80;99.90;;;;;;5063508;28;38598;-80
2022/09/02 09:47:18;;;;;;;8.30;3.65;;;23.60;99.90;;;;;;5064644;28;39902;-80
2022/09/02 09:49:46;;;;;;;8.45;3.05;;;23.60;99.90;;;;;;5062331;28;37534;-79
2022/09/02 09:52:29;;;;;;;10.90;3.53;;;23.80;99.90;;;;;;5062761;28;37527;-79
2022/09/02 09:55:07;;;;;;;6.38;3.13;;;23.90;99.90;;;;;;5067310;28;39639;-80
2022/09/02 09:57:33;;;;;;;11.77;3.67;;;23.90;99.90;;;;;;5059347;28;46089;-80
2022/09/02 10:00:02;;;;;;;9.40;3.90;;;24.20;99.90;;;;;;5059796;28;38760;-79
2022/09/02 10:02:28;;;;;;;10.45;3.67;;;24.00;99.90;;;;;;5063112;28;38767;-80
2022/09/02 10:05:28;;;;;;;6.28;2.90;;;24.40;99.90;;;;;;5064672;28;39419;-79
2022/09/02 10:07:58;;;;;;;9.43;3.15;;;24.60;99.90;;;;;;5058974;28;48483;-79
2022/09/02 10:10:26;;;;;;;6.15;2.80;;;24.70;99.90;;;;;;5037591;28;36697;-80
2022/09/02 10:13:15;;;;;;;5.97;2.90;;;24.70;99.90;;;;;;5052936;28;38896;-79
2022/09/02 10:16:02;;;;;;;8.05;3.50;;;24.70;99.90;;;;;;5053509;28;47280;-77
2022/09/02 10:18:47;;;;;;;7.28;3.05;;;25.00;99.90;;;;;;5048206;28;48859;-78
2022/09/02 10:21:45;;;;;;;11.23;3.72;;;25.00;99.90;;;;;;5064922;28;37428;-80
2022/09/02 10:24:26;;;;;;;5.95;2.72;;;24.90;99.90;;;;;;5069151;28;38979;-79
2022/09/02 10:26:56;;;;;;;6.85;2.75;;;24.90;99.90;;;;;;5063394;28;38551;-77
2022/09/02 10:29:59;;;;;;;3.80;2.55;;;25.00;99.90;;;;;;5066536;28;36923;-78
2022/09/02 10:32:45;;;;;;;10.07;2.70;;;25.10;99.90;;;;;;5035351;28;38314;-78
2022/09/02 10:35:28;;;;;;;3.88;2.50;;;25.30;99.90;;;;;;5063913;28;38446;-78
2022/09/02 10:38:19;;;;;;;5.38;3.13;;;25.70;99.90;;;;;;5037747;28;39255;-78
2022/09/02 10:41:16;;;;;;;7.40;2.70;;;25.70;99.90;;;;;;5078310;28;47441;-77
2022/09/02 10:43:58;;;;;;;6.05;2.65;;;25.90;99.90;;;;;;5060552;28;47694;-78
2022/09/02 10:46:25;;;;;;;;;;;25.90;99.90;;;;;;5072938;28;38657;-78
2022/09/02 10:49:33;;;;;;;5.38;2.40;;;25.70;99.90;;;;;;5083014;28;38614;-78
2022/09/02 10:52:37;;;;;;;3.75;2.80;;;26.40;99.90;;;;;;5066102;28;48978;-77
2022/09/02 10:55:40;;;;;;;7.63;3.03;;;26.70;99.90;;;;;;5057785;28;48746;-77
2022/09/02 10:58:32;;;;;;;3.30;2.67;;;26.90;99.90;;;;;;5056882;28;46970;-77
2022/09/02 11:00:58;;;;;;;;;;;26.80;99.90;;;;;;5055574;28;39114;-77
2022/09/02 11:04:01;;;;;;;7.00;3.10;;;26.70;99.90;;;;;;5055978;28;39161;-77
2022/09/02 11:06:31;;;;;;;5.50;2.67;;;27.10;99.90;;;;;;5035875;28;48880;-77
2022/09/02 11:09:01;;;;;;;9.55;2.60;;;27.00;99.90;;;;;;5074041;28;38694;-77
2022/09/02 11:11:43;;;;;;;6.97;2.65;;;26.70;99.90;;;;;;5083347;28;38612;-77
2022/09/02 11:14:31;;;;;;;3.88;2.65;;;26.10;99.90;;;;;;5060973;28;38780;-77
2022/09/02 11:17:10;;;;;;;6.03;2.60;;;26.50;99.90;;;;;;5094660;28;37742;-76
2022/09/02 11:19:50;;;;;;;9.32;2.90;;;26.80;99.90;;;;;;5071744;28;49334;-76
2022/09/02 11:22:32;;;;;;;6.38;2.45;;;27.00;99.90;;;;;;5056257;28;38560;-76
2022/09/02 11:25:25;;;;;;;3.95;2.20;;;27.10;99.90;;;;;;5075405;28;38804;-79
2022/09/02 11:28:10;;;;;;;8.85;2.90;;;26.90;99.90;;;;;;5060316;28;49504;-78
2022/09/02 11:31:20;;;;;;;5.07;2.00;;;27.00;99.90;;;;;;5068430;28;48594;-76
2022/09/02 11:34:17;;;;;;;8.77;2.75;;;27.00;99.90;;;;;;5016649;28;47552;-79
2022/09/02 11:36:44;;;;;;;5.28;2.38;;;27.20;99.90;;;;;;5073930;28;48266;-79
2022/09/02 11:39:35;;;;;;;3.85;2.15;;;27.10;99.90;;;;;;5062843;28;36321;-76
2022/09/02 11:42:23;;;;;;;4.68;2.45;;;27.00;99.90;;;;;;5056115;28;38002;-76
2022/09/02 11:45:04;;;;;;;5.45;2.72;;;27.10;99.90;;;;;;5085849;28;38572;-76
2022/09/02 11:47:41;;;;;;;7.63;2.65;;;27.10;99.90;;;;;;5071261;28;47172;-76
2022/09/02 11:50:25;;;;;;;4.10;2.63;;;27.40;99.90;;;;;;5077532;28;38193;-76
2022/09/02 11:53:16;;;;;;;2.33;2.00;;;27.10;99.90;;;;;;5065876;28;39131;-76
2022/09/02 11:55:47;;;;;;;7.18;2.60;;;27.10;99.90;;;;;;5061907;28;47879;-75
2022/09/02 11:58:31;;;;;;;4.95;2.35;;;27.10;99.90;;;;;;5077798;28;36878;-75
2022/09/02 12:00:59;;;;;;;4.25;2.38;;;27.00;99.90;;;;;;5065386;28;36211;-75
2022/09/02 12:03:30;;;;;;;4.35;2.28;;;26.90;99.90;;;;;;5081901;28;38839;-75
2022/09/02 12:06:15;;;;;;;6.68;3.42;;;26.80;99.90;;;;;;5059596;28;38655;-76
2022/09/02 12:08:42;;;;;;;5.30;2.72;;;26.70;99.90;;;;;;5082125;28;48838;-76
2022/09/02 12:11:40;;;;;;;5.65;2.90;;;26.70;99.90;;;;;;5057733;28;37028;-76
2022/09/02 12:14:24;;;;;;;5.00;2.90;;;26.30;99.90;;;;;;5062128;28;38788;-76
2022/09/02 12:17:07;;;;;;;6.72;2.90;;;26.10;99.90;;;;;;5084009;28;37779;-76
2022/09/02 12:19:39;;;;;;;3.22;2.40;;;26.20;99.90;;;;;;5065865;28;47412;-75
2022/09/02 12:22:37;;;;;;;6.30;2.67;;;26.60;99.90;;;;;;5069387;28;38036;-75
2022/09/02 12:25:23;;;;;;;4.70;2.45;;;27.00;99.90;;;;;;5063240;28;40649;-75
2022/09/02 12:27:50;;;;;;;9.30;3.13;;;27.10;99.90;;;;;;5081212;28;39041;-76
2022/09/02 12:31:06;;;;;;;10.25;3.38;;;27.20;99.90;;;;;;5076008;28;36709;-77
2022/09/02 12:33:44;;;;;;;5.25;3.20;;;27.00;99.90;;;;;;5087195;28;48548;-76
2022/09/02 12:36:37;;;;;;;7.28;2.83;;;26.90;99.90;;;;;;5076354;28;40237;-76
2022/09/02 12:39:21;;;;;;;7.13;2.80;;;26.50;99.90;;;;;;5080748;28;38345;-76
2022/09/02 12:42:09;;;;;;;3.65;2.50;;;26.60;99.90;;;;;;5068025;28;37558;-76
2022/09/02 12:44:58;;;;;;;5.65;2.67;;;26.80;99.90;;;;;;5063219;28;47026;-77
2022/09/02 12:47:36;;;;;;;7.38;2.60;;;26.80;99.90;;;;;;5065199;28;38779;-76
2022/09/02 12:50:11;;;;;;;13.40;3.15;;;27.00;99.90;;;;;;5070749;28;38637;-75
2022/09/02 12:53:01;;;;;;;5.63;2.50;;;27.20;99.90;;;;;;5055835;28;47337;-74
2022/09/02 12:55:30;;;;;;;5.57;2.53;;;27.00;99.90;;;;;;5029144;28;48233;-76
2022/09/02 12:58:05;;;;;;;7.65;2.33;;;27.10;99.90;;;;;;5058436;28;38894;-76
2022/09/02 13:00:50;;;;;;;6.95;2.75;;;27.30;99.90;;;;;;5055898;28;46567;-76
2022/09/02 13:03:41;;;;;;;6.82;2.40;;;27.50;99.90;;;;;;5074865;28;38775;-76
2022/09/02 13:06:33;;;;;;;4.00;2.25;;;27.50;99.90;;;;;;5060031;28;39446;-76
2022/09/02 13:09:16;;;;;;;;;;;27.20;99.90;;;;;;5062831;28;39537;-75
2022/09/02 13:12:06;;;;;;;3.85;1.80;;;27.30;99.90;;;;;;5077581;28;47305;-76
2022/09/02 13:14:53;;;;;;;3.70;2.15;;;27.70;99.90;;;;;;5057636;28;47129;-76
2022/09/02 13:17:41;;;;;;;5.00;1.70;;;27.70;99.90;;;;;;5075879;28;38017;-77
2022/09/02 13:20:21;;;;;;;2.92;1.73;;;27.70;99.90;;;;;;5064108;28;38575;-75